Time;durP1;ratioP1;P1;durP2;ratioP2;P2;SDS_P1;SDS_P2;PMS_P1;PMS_P2;Temp;Humidity;BMP_temperature;BMP_pressure;BME280_temperature;BME280_humidity;BME280_pressure;Samples;Min_cycle;Max_cycle;Signal;HPM_P1;HPM_P2
2022/01/30 10:18:22;;;;;;;51.72;10.30;;;;;;;;;;5104571;27;1967022;-73
2022/01/30 10:20:48;;;;;;;;;;;;;;;;;;5166295;27;20462;-72
2022/01/30 10:23:15;;;;;;;49.45;9.95;;;;;;;;;;5159433;27;20395;-73
2022/01/30 10:25:41;;;;;;;;;;;;;;;;;;5144233;27;20451;-76
2022/01/30 10:28:13;;;;;;;57.72;12.35;;;;;;;;;;5167792;27;19919;-73
2022/01/30 10:30:53;;;;;;;58.25;11.90;;;;;;;;;;5169783;27;20046;-78
2022/01/30 10:33:20;;;;;;;44.47;9.27;;;;;;;;;;5169313;27;20066;-80
2022/01/30 10:35:53;;;;;;;48.30;10.13;;;;;;;;;;5157204;27;20049;-79
2022/01/30 10:38:20;;;;;;;62.78;10.40;;;;;;;;;;5168682;27;20053;-74
2022/01/30 10:40:54;;;;;;;53.97;9.57;;;;;;;;;;5169006;27;20053;-74
2022/01/30 10:43:20;;;;;;;46.35;9.00;;;;;;;;;;5167629;27;20498;-80
2022/01/30 10:45:46;;;;;;;47.53;8.70;;;;;;;;;;5168441;27;20397;-77
2022/01/30 10:48:13;;;;;;;57.58;10.13;;;;;;;;;;5167501;27;20055;-77
2022/01/30 10:50:42;;;;;;;44.25;8.98;;;;;;;;;;5153659;27;20271;-73
2022/01/30 10:53:17;;;;;;;51.15;9.05;;;;;;;;;;5149341;27;20047;-72
2022/01/30 10:55:44;;;;;;;42.40;8.00;;;;;;;;;;5129553;27;20047;-72
2022/01/30 10:58:18;;;;;;;58.63;9.25;;;;;;;;;;5112677;27;20050;-76
2022/01/30 11:00:46;;;;;;;34.00;6.65;;;;;;;;;;5161076;27;20050;-74
2022/01/30 11:03:31;;;;;;;53.88;9.15;;;;;;;;;;5148753;27;20042;-70
2022/01/30 11:05:59;;;;;;;44.42;10.27;;;;;;;;;;5167757;27;20115;-76
2022/01/30 11:08:26;;;;;;;50.78;9.45;;;;;;;;;;5148201;27;20061;-75
2022/01/30 11:11:02;;;;;;;49.13;10.77;;;;;;;;;;5147363;27;20038;-74
2022/01/30 11:13:33;;;;;;;38.95;9.02;;;;;;;;;;5164030;27;20050;-71
2022/01/30 11:18:51;;;;;;;45.28;7.90;;;;;;;;;;5166899;27;20058;-75
2022/01/30 11:21:21;;;;;;;56.88;10.35;;;;;;;;;;5164823;27;20049;-78
2022/01/30 11:23:47;;;;;;;50.83;9.35;;;;;;;;;;5146909;27;20054;-75
2022/01/30 11:26:13;;;;;;;;;;;;;;;;;;5144984;27;20043;-74
2022/01/30 11:28:40;;;;;;;40.67;8.00;;;;;;;;;;5160243;27;20351;-78
2022/01/30 11:31:06;;;;;;;;;;;;;;;;;;5153607;27;20451;-89
2022/01/30 11:33:32;;;;;;;45.92;8.55;;;;;;;;;;5117839;27;20053;-78
2022/01/30 11:36:00;;;;;;;47.47;9.57;;;;;;;;;;5127592;27;20047;-78
2022/01/30 11:38:26;;;;;;;38.30;7.22;;;;;;;;;;5114979;27;20049;-72
2022/01/30 11:40:52;;;;;;;;;;;;;;;;;;5118150;27;20049;-84
2022/01/30 11:43:22;;;;;;;54.58;10.02;;;;;;;;;;5134350;27;20366;-70
2022/01/30 11:46:08;;;;;;;51.30;9.45;;;;;;;;;;5134453;27;20443;-81
2022/01/30 11:48:35;;;;;;;51.70;10.83;;;;;;;;;;5125828;27;20078;-75
2022/01/30 11:51:01;;;;;;;;;;;;;;;;;;5113753;27;20134;-81
2022/01/30 11:53:29;;;;;;;44.53;9.65;;;;;;;;;;5130912;27;20339;-77
2022/01/30 11:55:56;;;;;;;50.58;10.10;;;;;;;;;;5112482;27;20062;-79
2022/01/30 11:58:38;;;;;;;49.20;9.30;;;;;;;;;;5141365;27;20042;-91
2022/01/30 12:01:04;;;;;;;44.55;9.30;;;;;;;;;;5134118;27;20303;-76
2022/01/30 12:03:33;;;;;;;48.92;9.57;;;;;;;;;;5153249;27;20128;-76
2022/01/30 12:06:17;;;;;;;47.25;9.23;;;;;;;;;;5143621;27;20096;-71
2022/01/30 12:08:48;;;;;;;29.75;6.20;;;;;;;;;;5139837;27;20078;-64
2022/01/30 12:11:32;;;;;;;50.00;9.35;;;;;;;;;;5133878;27;20494;-68
2022/01/30 12:13:58;;;;;;;39.30;8.23;;;;;;;;;;5117877;27;20088;-71
2022/01/30 12:16:57;;;;;;;53.38;9.73;;;;;;;;;;5152744;27;20038;-69
2022/01/30 12:19:32;;;;;;;42.10;9.63;;;;;;;;;;5124140;27;20145;-78
2022/01/30 12:21:59;;;;;;;25.17;6.55;;;;;;;;;;5133019;27;20053;-72
2022/01/30 12:24:26;;;;;;;46.58;8.80;;;;;;;;;;5113970;27;20050;-74
2022/01/30 12:26:54;;;;;;;52.15;9.93;;;;;;;;;;5133056;27;20042;-75
2022/01/30 12:29:43;;;;;;;35.92;6.13;;;;;;;;;;5115942;27;20676;-75
2022/01/30 12:32:23;;;;;;;47.78;10.23;;;;;;;;;;5133410;27;20495;-86
2022/01/30 12:35:02;;;;;;;48.20;9.18;;;;;;;;;;5105555;27;20043;-76
2022/01/30 12:37:33;;;;;;;78.05;11.13;;;;;;;;;;5151454;27;20078;-81
2022/01/30 12:40:02;;;;;;;48.13;8.85;;;;;;;;;;5126010;27;20122;-76
2022/01/30 12:42:34;;;;;;;55.70;9.25;;;;;;;;;;5133065;27;20043;-82
2022/01/30 12:45:01;;;;;;;41.38;8.25;;;;;;;;;;5133480;27;20136;-81
2022/01/30 12:47:27;;;;;;;38.85;8.63;;;;;;;;;;5098087;27;20039;-83
2022/01/30 12:49:58;;;;;;;;;;;;;;;;;;5146708;27;20054;-78
2022/01/30 12:52:36;;;;;;;49.90;8.70;;;;;;;;;;5134956;27;19919;-71
2022/01/30 12:55:08;;;;;;;48.97;7.97;;;;;;;;;;5152001;27;20066;-71
2022/01/30 12:57:36;;;;;;;39.33;7.82;;;;;;;;;;5145696;27;21336;-71
2022/01/30 13:00:04;;;;;;;41.75;6.97;;;;;;;;;;5132902;27;20121;-73
2022/01/30 13:02:30;;;;;;;37.15;6.63;;;;;;;;;;5133494;27;20046;-69
2022/01/30 13:05:00;;;;;;;45.03;8.55;;;;;;;;;;5153216;27;20053;-67
2022/01/30 13:07:26;;;;;;;52.72;8.85;;;;;;;;;;5153022;27;20513;-67
2022/01/30 13:10:10;;;;;;;43.00;8.32;;;;;;;;;;5155043;27;20042;-73
2022/01/30 13:12:36;;;;;;;39.97;7.70;;;;;;;;;;5115972;27;20193;-70
2022/01/30 13:15:06;;;;;;;39.85;8.15;;;;;;;;;;5134899;27;20047;-73
2022/01/30 13:17:32;;;;;;;32.15;6.65;;;;;;;;;;5152181;27;20071;-71
2022/01/30 13:19:59;;;;;;;;;;;;;;;;;;5153872;27;20046;-69
2022/01/30 13:22:25;;;;;;;36.70;7.80;;;;;;;;;;5151017;27;19919;-70
2022/01/30 13:24:55;;;;;;;51.47;9.80;;;;;;;;;;5152562;27;20042;-68
2022/01/30 13:27:21;;;;;;;33.45;6.47;;;;;;;;;;5135993;27;20474;-74
2022/01/30 13:29:47;;;;;;;48.45;9.07;;;;;;;;;;5118563;27;20093;-79
2022/01/30 13:32:13;;;;;;;63.30;7.97;;;;;;;;;;5133407;27;20074;-75
2022/01/30 13:34:40;;;;;;;38.75;7.95;;;;;;;;;;5135474;27;20139;-76
2022/01/30 13:37:08;;;;;;;45.65;8.65;;;;;;;;;;5136197;27;20439;-75
2022/01/30 13:39:51;;;;;;;49.63;7.53;;;;;;;;;;5117636;27;20038;-86
2022/01/30 13:47:52;;;;;;;30.55;6.97;;;;;;;;;;5152306;27;20046;-76
2022/01/30 13:50:24;;;;;;;36.55;7.00;;;;;;;;;;5131719;27;20042;-86
2022/01/30 13:52:59;;;;;;;39.95;7.93;;;;;;;;;;5152268;27;20046;-82
2022/01/30 13:55:25;;;;;;;37.70;7.18;;;;;;;;;;5115735;27;20043;-81
2022/01/30 13:57:56;;;;;;;41.13;9.07;;;;;;;;;;5133589;27;20069;-75
2022/01/30 14:00:23;;;;;;;40.97;7.68;;;;;;;;;;5133515;27;20077;-78
2022/01/30 14:02:48;;;;;;;;;;;;;;;;;;5152931;27;20053;-72
2022/01/30 14:05:29;;;;;;;52.97;7.80;;;;;;;;;;5150026;27;20267;-77
2022/01/30 14:07:56;;;;;;;48.35;8.05;;;;;;;;;;5150457;27;20053;-75
2022/01/30 14:10:23;;;;;;;40.97;8.35;;;;;;;;;;5133105;27;20047;-75
2022/01/30 14:12:51;;;;;;;45.92;8.48;;;;;;;;;;5151455;27;20098;-75
2022/01/30 14:15:21;;;;;;;47.33;8.32;;;;;;;;;;5124434;28;20051;-84
2022/01/30 14:18:02;;;;;;;32.50;7.40;;;;;;;;;;5146998;27;20062;-75
2022/01/30 14:20:32;;;;;;;47.00;8.77;;;;;;;;;;5143380;27;20130;-80
2022/01/30 14:23:11;;;;;;;43.75;8.95;;;;;;;;;;5112463;28;20035;-84
2022/01/30 14:25:37;;;;;;;45.05;9.18;;;;;;;;;;5131074;28;20058;-73
2022/01/30 14:28:03;;;;;;;46.92;7.95;;;;;;;;;;5112764;28;20050;-73
2022/01/30 14:30:37;;;;;;;42.55;7.65;;;;;;;;;;5095183;27;20080;-83
2022/01/30 14:33:04;;;;;;;38.60;7.93;;;;;;;;;;5131039;28;20097;-76
2022/01/30 14:35:35;;;;;;;45.28;8.38;;;;;;;;;;5095305;28;20043;-68
2022/01/30 14:38:02;;;;;;;43.67;7.65;;;;;;;;;;5112542;28;20062;-76
2022/01/30 14:40:31;;;;;;;40.75;7.50;;;;;;;;;;5131732;27;20074;-77
2022/01/30 14:42:58;;;;;;;45.28;8.75;;;;;;;;;;5131038;28;20058;-78
2022/01/30 14:45:25;;;;;;;41.28;7.53;;;;;;;;;;5122191;27;20043;-80
2022/01/30 14:47:51;;;;;;;35.78;6.35;;;;;;;;;;5140315;27;20483;-78
2022/01/30 14:50:17;;;;;;;43.33;8.93;;;;;;;;;;5133106;27;20047;-70
2022/01/30 14:52:43;;;;;;;45.53;7.82;;;;;;;;;;5142822;27;20104;-77
2022/01/30 14:55:09;;;;;;;42.28;8.35;;;;;;;;;;5131042;27;20076;-79
2022/01/30 14:57:35;;;;;;;47.67;7.80;;;;;;;;;;5112131;28;20049;-76
2022/01/30 15:00:02;;;;;;;39.85;7.38;;;;;;;;;;5112152;28;20092;-76
2022/01/30 15:02:28;;;;;;;46.42;8.88;;;;;;;;;;5095206;27;20076;-78
2022/01/30 15:04:55;;;;;;;40.38;9.05;;;;;;;;;;5133786;27;20043;-75
2022/01/30 15:07:21;;;;;;;;;;;;;;;;;;5134720;27;20209;-80
2022/01/30 15:09:47;;;;;;;39.45;8.02;;;;;;;;;;5136190;27;19958;-70
2022/01/30 15:12:13;;;;;;;36.17;7.13;;;;;;;;;;5133793;27;20055;-73
2022/01/30 15:14:41;;;;;;;45.38;7.30;;;;;;;;;;5125426;27;20039;-78
2022/01/30 15:17:08;;;;;;;47.58;8.38;;;;;;;;;;5110035;27;20055;-77
2022/01/30 15:19:34;;;;;;;48.60;9.48;;;;;;;;;;5133049;27;20095;-74
2022/01/30 15:22:02;;;;;;;37.05;7.63;;;;;;;;;;5134091;27;20047;-72
2022/01/30 15:24:28;;;;;;;50.75;9.25;;;;;;;;;;5115548;27;20486;-75
2022/01/30 15:26:54;;;;;;;52.70;9.65;;;;;;;;;;5134377;27;20046;-80
2022/01/30 15:29:20;;;;;;;38.97;8.27;;;;;;;;;;5137912;27;20048;-75
2022/01/30 15:31:46;;;;;;;48.55;10.40;;;;;;;;;;5154421;27;20047;-76
2022/01/30 15:34:13;;;;;;;65.43;11.02;;;;;;;;;;5136458;27;20176;-76
2022/01/30 15:36:39;;;;;;;56.60;10.75;;;;;;;;;;5154228;27;20042;-68
2022/01/30 15:39:05;;;;;;;53.13;8.65;;;;;;;;;;5134793;27;20051;-73
2022/01/30 15:41:32;;;;;;;62.90;9.70;;;;;;;;;;5133449;27;20536;-78
2022/01/30 15:44:01;;;;;;;63.55;10.70;;;;;;;;;;5132592;27;20488;-81
2022/01/30 15:49:12;;;;;;;49.22;10.05;;;;;;;;;;5131885;27;20478;-94
2022/01/30 15:51:40;;;;;;;49.47;10.68;;;;;;;;;;5132809;27;20047;-83
2022/01/30 15:54:07;;;;;;;54.50;10.90;;;;;;;;;;5098024;27;20134;-77
2022/01/30 15:56:33;;;;;;;56.78;9.75;;;;;;;;;;5132417;27;20115;-79
2022/01/30 15:59:00;;;;;;;49.50;9.40;;;;;;;;;;5141532;27;20065;-90
2022/01/30 16:01:29;;;;;;;55.13;10.15;;;;;;;;;;5155419;27;20070;-81
2022/01/30 16:03:55;;;;;;;48.42;8.80;;;;;;;;;;5136845;27;20466;-77
2022/01/30 16:06:21;;;;;;;52.45;11.25;;;;;;;;;;5102885;27;20047;-79
2022/01/30 16:08:55;;;;;;;63.42;10.77;;;;;;;;;;5106737;27;20090;-83
2022/01/30 16:11:49;;;;;;;55.03;10.93;;;;;;;;;;5137139;27;20621;-81
2022/01/30 16:16:53;;;;;;;53.22;9.25;;;;;;;;;;5116479;27;20781;-80
2022/01/30 16:19:19;;;;;;;54.40;9.40;;;;;;;;;;5134368;27;20211;-86
2022/01/30 16:21:45;;;;;;;49.35;8.90;;;;;;;;;;5133976;27;20137;-81
2022/01/30 16:24:11;;;;;;;54.60;9.10;;;;;;;;;;5136013;27;20043;-84
2022/01/30 16:26:38;;;;;;;50.75;9.55;;;;;;;;;;5152701;27;20047;-78
2022/01/30 16:29:04;;;;;;;58.70;10.55;;;;;;;;;;5154124;27;20417;-84
2022/01/30 16:31:30;;;;;;;51.88;9.98;;;;;;;;;;5157156;27;20526;-78
2022/01/30 16:33:57;;;;;;;54.83;9.95;;;;;;;;;;5138108;27;20134;-79
2022/01/30 16:36:23;;;;;;;56.50;9.02;;;;;;;;;;5138580;27;20047;-81
2022/01/30 16:38:49;;;;;;;64.18;9.30;;;;;;;;;;5136413;27;20047;-82
2022/01/30 16:41:16;;;;;;;55.08;9.25;;;;;;;;;;5117155;27;20133;-78
2022/01/30 16:43:51;;;;;;;48.05;9.35;;;;;;;;;;5128905;27;20047;-81
2022/01/30 16:46:42;;;;;;;50.53;8.73;;;;;;;;;;5129470;27;20051;-84
2022/01/30 16:49:07;;;;;;;49.63;9.50;;;;;;;;;;5122152;27;20396;-78
2022/01/30 16:51:33;;;;;;;53.63;8.85;;;;;;;;;;5142154;27;20402;-76
2022/01/30 16:53:59;;;;;;;55.55;9.98;;;;;;;;;;5139376;27;20695;-79
2022/01/30 16:56:28;;;;;;;47.72;9.25;;;;;;;;;;5134570;27;20142;-80
2022/01/30 16:58:54;;;;;;;45.97;8.90;;;;;;;;;;5148005;27;20034;-77
2022/01/30 17:01:21;;;;;;;42.75;7.95;;;;;;;;;;5128035;27;20057;-79
2022/01/30 17:03:48;;;;;;;58.22;9.32;;;;;;;;;;5138463;27;20046;-76
2022/01/30 17:06:14;;;;;;;42.92;9.18;;;;;;;;;;5121331;27;20526;-77
2022/01/30 17:08:44;;;;;;;43.67;7.72;;;;;;;;;;5146822;27;20126;-86
2022/01/30 17:11:13;;;;;;;46.20;9.52;;;;;;;;;;5150667;27;20039;-79
2022/01/30 17:13:42;;;;;;;46.65;8.50;;;;;;;;;;5141150;27;20074;-87
2022/01/30 17:16:11;;;;;;;;;;;;;;;;;;5142195;27;20039;-76
2022/01/30 17:18:38;;;;;;;46.80;9.75;;;;;;;;;;5132549;27;19931;-79
2022/01/30 17:21:04;;;;;;;52.22;9.38;;;;;;;;;;5132660;27;20532;-77
2022/01/30 17:23:30;;;;;;;59.15;8.75;;;;;;;;;;5149428;27;20042;-80
2022/01/30 17:25:56;;;;;;;47.00;8.90;;;;;;;;;;5140309;27;20050;-78
2022/01/30 17:28:24;;;;;;;47.58;9.52;;;;;;;;;;5141584;27;20169;-81
2022/01/30 17:30:53;;;;;;;47.65;9.05;;;;;;;;;;5142719;27;20468;-79
2022/01/30 17:33:19;;;;;;;;;;;;;;;;;;5130374;27;20382;-81
2022/01/30 17:35:46;;;;;;;67.50;9.32;;;;;;;;;;5124777;27;19927;-85
2022/01/30 17:38:13;;;;;;;53.90;9.52;;;;;;;;;;5138942;27;20039;-79
2022/01/30 17:40:39;;;;;;;56.10;10.85;;;;;;;;;;5099149;27;20062;-79
2022/01/30 17:43:06;;;;;;;49.15;9.32;;;;;;;;;;5127811;27;20088;-78
2022/01/30 17:45:32;;;;;;;46.38;8.98;;;;;;;;;;5139036;27;20042;-77
2022/01/30 17:47:59;;;;;;;53.38;9.73;;;;;;;;;;5134201;27;20046;-76
2022/01/30 17:50:26;;;;;;;51.58;9.75;;;;;;;;;;5145120;27;20070;-80
2022/01/30 17:52:52;;;;;;;49.50;9.50;;;;;;;;;;5140569;27;20057;-75
2022/01/30 17:55:19;;;;;;;36.85;7.93;;;;;;;;;;5134617;27;20077;-79
2022/01/30 17:57:45;;;;;;;58.47;9.43;;;;;;;;;;5134332;27;20055;-78
2022/01/30 18:00:13;;;;;;;51.72;9.57;;;;;;;;;;5148580;27;20446;-80
2022/01/30 18:02:39;;;;;;;45.92;8.93;;;;;;;;;;5151563;27;20456;-79
2022/01/30 18:05:06;;;;;;;51.03;10.57;;;;;;;;;;5151939;27;20043;-78
2022/01/30 18:07:32;;;;;;;52.05;11.05;;;;;;;;;;5133400;27;20129;-78
2022/01/30 18:09:59;;;;;;;56.63;10.80;;;;;;;;;;5151222;27;20061;-79
2022/01/30 18:12:25;;;;;;;59.33;9.93;;;;;;;;;;5151191;27;20122;-78
2022/01/30 18:14:52;;;;;;;47.55;10.43;;;;;;;;;;5151534;27;20116;-78
2022/01/30 18:17:18;;;;;;;52.70;10.15;;;;;;;;;;5151579;27;20042;-77
2022/01/30 18:19:44;;;;;;;51.00;10.52;;;;;;;;;;5150732;27;20082;-77
2022/01/30 18:22:10;;;;;;;;;;;;;;;;;;5135632;27;20406;-77
2022/01/30 18:24:37;;;;;;;54.72;10.98;;;;;;;;;;5113698;27;20094;-80
2022/01/30 18:27:06;;;;;;;49.85;10.88;;;;;;;;;;5145950;27;20448;-77
2022/01/30 18:29:32;;;;;;;53.10;11.63;;;;;;;;;;5136743;27;20066;-76
2022/01/30 18:31:58;;;;;;;59.10;13.20;;;;;;;;;;5127433;28;20039;-79
2022/01/30 18:34:24;;;;;;;48.05;11.40;;;;;;;;;;5125350;27;20091;-77
2022/01/30 18:37:03;;;;;;;53.58;12.20;;;;;;;;;;5127039;27;20331;-78
2022/01/30 18:41:56;;;;;;;50.78;10.32;;;;;;;;;;5155855;27;20082;-81
2022/01/30 18:44:22;;;;;;;46.35;10.73;;;;;;;;;;5138069;27;20058;-80
2022/01/30 18:46:48;;;;;;;53.70;11.68;;;;;;;;;;5156541;27;20114;-82
2022/01/30 18:49:14;;;;;;;42.42;9.85;;;;;;;;;;5156563;27;20091;-79
2022/01/30 18:51:41;;;;;;;42.63;9.88;;;;;;;;;;5156526;27;20409;-77
2022/01/30 18:54:17;;;;;;;54.22;10.65;;;;;;;;;;5140230;27;20043;-81
2022/01/30 18:56:44;;;;;;;50.65;10.50;;;;;;;;;;5138600;27;20493;-79
2022/01/30 18:59:10;;;;;;;53.63;10.38;;;;;;;;;;5155518;27;20486;-81
2022/01/30 19:01:36;;;;;;;47.33;9.40;;;;;;;;;;5137617;27;20046;-79
2022/01/30 19:04:02;;;;;;;55.67;10.82;;;;;;;;;;5133713;27;20403;-80
2022/01/30 19:06:35;;;;;;;46.70;10.65;;;;;;;;;;5155993;27;20047;-80
2022/01/30 19:09:03;;;;;;;55.30;10.75;;;;;;;;;;5136423;27;20070;-79
2022/01/30 19:11:29;;;;;;;50.25;10.57;;;;;;;;;;5155717;27;20054;-77
2022/01/30 19:13:55;;;;;;;59.83;11.02;;;;;;;;;;5157289;27;20043;-76
2022/01/30 19:16:21;;;;;;;46.17;9.93;;;;;;;;;;5135065;27;20482;-76
2022/01/30 19:18:48;;;;;;;49.67;10.20;;;;;;;;;;5140603;27;20047;-78
2022/01/30 19:21:14;;;;;;;49.20;9.50;;;;;;;;;;5157111;27;20089;-77
2022/01/30 19:23:40;;;;;;;41.33;9.70;;;;;;;;;;5151855;27;20347;-77
2022/01/30 19:26:06;;;;;;;;;;;;;;;;;;5153176;27;20126;-78
2022/01/30 19:28:32;;;;;;;50.65;9.55;;;;;;;;;;5118182;27;19955;-78
2022/01/30 19:31:00;;;;;;;41.40;9.02;;;;;;;;;;5137256;27;20047;-79
2022/01/30 19:33:26;;;;;;;49.10;9.93;;;;;;;;;;5110097;27;20072;-76
2022/01/30 19:35:52;;;;;;;39.45;8.88;;;;;;;;;;5117874;27;20053;-74
2022/01/30 19:38:21;;;;;;;47.17;8.77;;;;;;;;;;5149499;27;20074;-76
2022/01/30 19:40:47;;;;;;;43.45;9.57;;;;;;;;;;5121425;27;20091;-76
2022/01/30 19:43:15;;;;;;;39.35;9.25;;;;;;;;;;5147651;27;20089;-78
2022/01/30 19:45:43;;;;;;;46.60;9.23;;;;;;;;;;5140581;27;20038;-78
2022/01/30 19:48:10;;;;;;;53.85;11.20;;;;;;;;;;5133060;27;20043;-76
2022/01/30 19:50:37;;;;;;;43.40;9.52;;;;;;;;;;5156428;27;20124;-79
2022/01/30 19:53:03;;;;;;;38.85;8.68;;;;;;;;;;5151270;27;20046;-76
2022/01/30 19:55:32;;;;;;;44.55;9.52;;;;;;;;;;5138907;27;20134;-78
2022/01/30 19:57:59;;;;;;;45.83;9.43;;;;;;;;;;5105497;27;20051;-79
2022/01/30 20:00:28;;;;;;;42.22;10.07;;;;;;;;;;5124323;27;20122;-75
2022/01/30 20:02:54;;;;;;;39.47;8.77;;;;;;;;;;5145702;27;20055;-74
2022/01/30 20:05:23;;;;;;;44.83;8.70;;;;;;;;;;5150278;27;20452;-72
2022/01/30 20:07:50;;;;;;;41.13;9.25;;;;;;;;;;5154320;27;20074;-75
2022/01/30 20:10:16;;;;;;;38.75;7.78;;;;;;;;;;5150601;27;20101;-73
2022/01/30 20:12:43;;;;;;;41.05;9.38;;;;;;;;;;5129627;27;20087;-74
2022/01/30 20:15:09;;;;;;;46.13;9.68;;;;;;;;;;5140714;27;20042;-75
2022/01/30 20:17:36;;;;;;;44.58;8.43;;;;;;;;;;5128308;27;20046;-72
2022/01/30 20:20:04;;;;;;;41.08;7.90;;;;;;;;;;5141525;27;20055;-72
2022/01/30 20:22:30;;;;;;;45.60;8.43;;;;;;;;;;5154891;27;20494;-73
2022/01/30 20:24:57;;;;;;;42.53;8.77;;;;;;;;;;5149774;27;20046;-76
2022/01/30 20:27:23;;;;;;;46.47;9.38;;;;;;;;;;5146548;27;20118;-72
2022/01/30 20:29:52;;;;;;;43.72;8.38;;;;;;;;;;5141403;27;20050;-73
2022/01/30 20:32:19;;;;;;;45.88;7.65;;;;;;;;;;5126355;27;20051;-74
2022/01/30 20:34:46;;;;;;;52.90;8.60;;;;;;;;;;5140840;27;20129;-74
2022/01/30 20:37:15;;;;;;;;;;;;;;;;;;5148232;27;20095;-74
2022/01/30 20:39:41;;;;;;;40.13;8.80;;;;;;;;;;5146454;27;19919;-73
2022/01/30 20:42:08;;;;;;;43.58;9.27;;;;;;;;;;5132517;27;20328;-74
2022/01/30 20:44:37;;;;;;;48.10;8.65;;;;;;;;;;5144105;27;20071;-74
2022/01/30 20:47:04;;;;;;;42.80;9.55;;;;;;;;;;5143445;27;20046;-74
2022/01/30 20:49:30;;;;;;;42.00;8.48;;;;;;;;;;5139798;27;20555;-74
2022/01/30 20:51:56;;;;;;;43.80;9.45;;;;;;;;;;5141698;27;20042;-75
2022/01/30 20:54:23;;;;;;;47.15;8.40;;;;;;;;;;5139842;27;20147;-73
2022/01/30 20:56:50;;;;;;;48.13;7.93;;;;;;;;;;5119178;27;20402;-71
2022/01/30 20:59:16;;;;;;;;;;;;;;;;;;5122135;27;21423;-73
2022/01/30 21:01:42;;;;;;;42.78;7.82;;;;;;;;;;5142685;27;19973;-72
2022/01/30 21:04:08;;;;;;;45.50;9.07;;;;;;;;;;5142568;27;20047;-72
2022/01/30 21:06:34;;;;;;;48.85;8.18;;;;;;;;;;5142911;27;20043;-74
2022/01/30 21:09:05;;;;;;;43.58;7.80;;;;;;;;;;5143266;27;20134;-71
2022/01/30 21:11:32;;;;;;;38.65;8.60;;;;;;;;;;5140487;27;20054;-72
2022/01/30 21:14:05;;;;;;;44.58;8.65;;;;;;;;;;5099944;27;20074;-71
2022/01/30 21:16:31;;;;;;;57.88;8.73;;;;;;;;;;5142313;27;20349;-71
2022/01/30 21:19:00;;;;;;;36.97;8.13;;;;;;;;;;5135867;27;20051;-71
2022/01/30 21:21:27;;;;;;;44.30;8.77;;;;;;;;;;5149913;27;20054;-71
2022/01/30 21:23:53;;;;;;;38.78;7.10;;;;;;;;;;5153126;27;20058;-72
2022/01/30 21:26:23;;;;;;;55.10;7.70;;;;;;;;;;5132106;27;20077;-72
2022/01/30 21:28:49;;;;;;;34.53;7.05;;;;;;;;;;5136759;27;20474;-74
2022/01/30 21:31:16;;;;;;;;;;;;;;;;;;5139851;27;20047;-76
2022/01/30 21:33:47;;;;;;;36.70;7.57;;;;;;;;;;5140503;27;19919;-75
2022/01/30 21:36:13;;;;;;;41.53;7.97;;;;;;;;;;5126994;27;20076;-75
2022/01/30 21:38:40;;;;;;;42.50;7.82;;;;;;;;;;5137678;27;20100;-73
2022/01/30 21:41:06;;;;;;;34.08;8.30;;;;;;;;;;5121996;27;20043;-72
2022/01/30 21:43:32;;;;;;;33.03;7.85;;;;;;;;;;5138094;27;20050;-72
2022/01/30 21:45:58;;;;;;;39.63;8.25;;;;;;;;;;5148948;27;20496;-70
2022/01/30 21:48:24;;;;;;;43.35;7.93;;;;;;;;;;5130053;27;20458;-74
2022/01/30 21:50:50;;;;;;;38.17;8.70;;;;;;;;;;5144039;27;20456;-73
2022/01/30 21:53:16;;;;;;;42.70;9.35;;;;;;;;;;5149601;27;20056;-74
2022/01/30 21:55:43;;;;;;;37.80;7.10;;;;;;;;;;5133992;27;20586;-79
2022/01/30 21:58:09;;;;;;;;;;;;;;;;;;5154162;27;20045;-76
2022/01/30 22:00:35;;;;;;;45.05;8.57;;;;;;;;;;5138297;27;20014;-74
2022/01/30 22:03:01;;;;;;;36.53;7.30;;;;;;;;;;5135513;27;20106;-69
2022/01/30 22:05:28;;;;;;;46.50;9.43;;;;;;;;;;5146301;27;20435;-72
2022/01/30 22:07:54;;;;;;;34.72;7.25;;;;;;;;;;5119043;27;20050;-77
2022/01/30 22:10:20;;;;;;;;;;;;;;;;;;5146450;27;20480;-75
2022/01/30 22:12:49;;;;;;;47.40;8.30;;;;;;;;;;5114998;27;19923;-73
2022/01/30 22:15:19;;;;;;;40.25;7.10;;;;;;;;;;5147859;27;20118;-72
2022/01/30 22:17:45;;;;;;;38.58;7.22;;;;;;;;;;5134951;27;20074;-73
2022/01/30 22:20:12;;;;;;;41.88;8.30;;;;;;;;;;5147641;27;20070;-71
2022/01/30 22:22:38;;;;;;;37.20;6.85;;;;;;;;;;5134408;27;20042;-72
2022/01/30 22:25:08;;;;;;;31.30;7.68;;;;;;;;;;5149128;27;20097;-69
2022/01/30 22:27:35;;;;;;;35.85;8.35;;;;;;;;;;5137704;27;20112;-72
2022/01/30 22:30:08;;;;;;;39.60;7.82;;;;;;;;;;5146701;27;20503;-76
2022/01/30 22:32:38;;;;;;;47.22;8.13;;;;;;;;;;5131028;27;20082;-76
2022/01/30 22:35:14;;;;;;;39.08;7.82;;;;;;;;;;5147753;27;20155;-79
2022/01/30 22:37:41;;;;;;;40.78;7.75;;;;;;;;;;5134946;27;20054;-76
2022/01/30 22:40:09;;;;;;;41.35;7.63;;;;;;;;;;5129117;27;20046;-75
2022/01/30 22:42:35;;;;;;;37.47;8.15;;;;;;;;;;5098384;27;20067;-73
2022/01/30 22:45:01;;;;;;;37.20;8.15;;;;;;;;;;5144146;27;20035;-73
2022/01/30 22:47:27;;;;;;;38.00;7.60;;;;;;;;;;5128584;27;20074;-72
2022/01/30 22:49:53;;;;;;;34.70;7.13;;;;;;;;;;5151152;27;20047;-72
2022/01/30 22:52:19;;;;;;;41.88;7.32;;;;;;;;;;5148330;27;20103;-71
2022/01/30 22:54:46;;;;;;;37.20;7.20;;;;;;;;;;5134693;27;20042;-72
2022/01/30 22:57:13;;;;;;;41.50;7.43;;;;;;;;;;5140362;27;20123;-72
2022/01/30 22:59:39;;;;;;;32.63;7.68;;;;;;;;;;5143175;27;20043;-70
2022/01/30 23:02:06;;;;;;;34.45;7.57;;;;;;;;;;5140183;27;20046;-71
2022/01/30 23:04:32;;;;;;;31.08;7.15;;;;;;;;;;5136079;27;20106;-69
2022/01/30 23:06:58;;;;;;;34.83;8.10;;;;;;;;;;5125092;27;20066;-69
2022/01/30 23:09:24;;;;;;;32.28;6.65;;;;;;;;;;5139524;27;20530;-68
2022/01/30 23:11:50;;;;;;;33.90;6.85;;;;;;;;;;5143682;27;20069;-69
2022/01/30 23:14:16;;;;;;;35.40;7.05;;;;;;;;;;5130932;27;20123;-71
2022/01/30 23:16:42;;;;;;;32.83;7.65;;;;;;;;;;5138825;27;20043;-70
2022/01/30 23:19:08;;;;;;;34.72;7.40;;;;;;;;;;5141326;27;20441;-71
2022/01/30 23:21:34;;;;;;;30.42;6.47;;;;;;;;;;5148654;27;20104;-73
2022/01/30 23:24:02;;;;;;;30.73;7.47;;;;;;;;;;5145431;27;20343;-71
2022/01/30 23:26:30;;;;;;;33.92;7.07;;;;;;;;;;5113819;27;20180;-72
2022/01/30 23:28:57;;;;;;;34.28;7.65;;;;;;;;;;5137399;27;20609;-70
2022/01/30 23:31:23;;;;;;;39.80;6.95;;;;;;;;;;5150824;27;20127;-71
2022/01/30 23:33:49;;;;;;;;;;;;;;;;;;5153536;27;20295;-69
2022/01/30 23:36:16;;;;;;;28.13;7.18;;;;;;;;;;5134945;27;19998;-69
2022/01/30 23:38:45;;;;;;;31.85;7.40;;;;;;;;;;5138252;27;20087;-69
2022/01/30 23:41:24;;;;;;;28.08;6.85;;;;;;;;;;5134218;27;20118;-70
2022/01/30 23:43:52;;;;;;;36.08;7.47;;;;;;;;;;5134931;27;20046;-69
2022/01/30 23:46:18;;;;;;;31.50;8.18;;;;;;;;;;5154439;27;20047;-72
2022/01/30 23:48:44;;;;;;;30.80;7.88;;;;;;;;;;5149137;27;20039;-71
2022/01/30 23:51:10;;;;;;;32.03;6.70;;;;;;;;;;5146495;27;20039;-71
2022/01/30 23:53:36;;;;;;;31.92;7.38;;;;;;;;;;5142094;27;20602;-72
2022/01/30 23:56:03;;;;;;;27.33;7.25;;;;;;;;;;5148793;27;20462;-71
2022/01/30 23:58:29;;;;;;;27.60;7.97;;;;;;;;;;5154757;27;20043;-70
